Trapper Creek, Alaska
Current Conditions -  °F | °C
As of 10:53 PM on Sunday 23 Nov 2014 (Local Time) from PATK Reporting Station
Overcast Overcast  
Wind Chill: 24°   Ceiling: 9000
Heat Index: 32°   Visibility: 10mi
Dew Point: 18°   Wind: 9mph
Humidity: 56%   Direction: 20°NNE
Pressure: 29.59"   Gusts: NA
Location:  62.24°N, 150.42°W
Report Text: PATK 240753Z AUTO 02008KT 10SM OVC090 00/M08 A2959 RMK AO2 SLP026 T00001078 TSNO
Loading
Personal Weather Stations






























Interactive Weather Map New forecast layout! Learn more

10-Day Weather Forecast

Advertisements
Track Severe Weather on mobile